CheckWX is a tool to help pilots better visualize weather data.  It is not intended as a substitute for an official pre-flight weather briefing.

05:48:10 UTC

KBWG TAF
Bowling Green-Warren County Regional Airport
Bowling Green, Kentucky, USA
KBWG 260520Z 2606/2706 18009KT 6SM -SHRA BR SCT012 BKN030 TEMPO 2608/2612 4SM -SHRA BR BKN012 FM261200 17013G20KT 6SM -SHRA SCT008 OVC012 TEMPO 2612/2616 3SM -SHRA BR BKN008 FM262200 17012KT P6SM SCT008 BKN015

Aug-26@
06:00 UTC

Aug-26 @ 06:00 UTC

Aug-26@
12:00 UTC

Aug-26 @ 12:00 UTC

KBWG 260520Z 2606/2706 18009KT 6SM -SHRA BR SCT012 BKN030
Wind
  • 180° at 9 KTS
Conditions
Light Rain, Mist
Cloud Levels
  • Scattered at 1,200' AGL
  • Broken at 3,000' AGL

Aug-26@
08:00 UTC

Aug-26 @ 08:00 UTC

Aug-26@
12:00 UTC

Aug-26 @ 12:00 UTC

TEMPO 2608/2612 4SM -SHRA BR BKN012

Temporary

Temporary Changes expected for less than half the time period

Conditions
Light Rain, Mist
Cloud Levels
  • Broken at 1,200' AGL

Aug-26@
12:00 UTC

Aug-26 @ 12:00 UTC

Aug-26@
16:00 UTC

Aug-26 @ 16:00 UTC

TEMPO 2612/2616 3SM -SHRA BR BKN008

Temporary

Temporary Changes expected for less than half the time period

Conditions
Light Rain, Mist
Cloud Levels
  • Broken at 800' AGL

Aug-26@
12:00 UTC

Aug-26 @ 12:00 UTC

Aug-26@
22:00 UTC

Aug-26 @ 22:00 UTC

FM261200 17013G20KT 6SM -SHRA SCT008 OVC012

From

From Standard forecast or significant change

Wind
  • 170° at 13 KTS
  • {Gusting to 20 KTS
Conditions
Light Rain
Cloud Levels
  • Scattered at 800' AGL
  • Overcast at 1,200' AGL

Aug-26@
22:00 UTC

Aug-26 @ 22:00 UTC

Aug-27@
06:00 UTC

Aug-27 @ 06:00 UTC

FM262200 17012KT P6SM SCT008 BKN015

From

From Standard forecast or significant change

Wind
  • 170° at 12 KTS
Cloud Levels
  • Scattered at 800' AGL
  • Broken at 1,500' AGL